Time;durP1;ratioP1;P1;durP2;ratioP2;P2;SDS_P1;SDS_P2;PMS_P1;PMS_P2;Temp;Humidity;BMP_temperature;BMP_pressure;BME280_temperature;BME280_humidity;BME280_pressure;Samples;Min_cycle;Max_cycle;Signal;HPM_P1;HPM_P2
2024/02/28 00:00:29;;;;;;;137.75;129.50;;;8.20;99.90;;;;;;5073611;28;20032;-82
2024/02/28 00:02:55;;;;;;;124.40;117.28;;;8.20;99.90;;;;;;5074549;28;20037;-82
2024/02/28 00:05:21;;;;;;;88.50;83.63;;;8.20;99.90;;;;;;5074436;28;20037;-80
2024/02/28 00:07:48;;;;;;;86.05;81.43;;;8.10;99.90;;;;;;5074973;28;20055;-81
2024/02/28 00:10:14;;;;;;;76.63;72.13;;;8.00;99.90;;;;;;5073778;28;20031;-82
2024/02/28 00:12:40;;;;;;;78.10;73.67;;;8.00;99.90;;;;;;5074582;28;20049;-81
2024/02/28 00:15:10;;;;;;;81.63;77.00;;;8.00;99.90;;;;;;5073335;28;20029;-81
2024/02/28 00:17:42;;;;;;;99.97;93.40;;;8.10;99.90;;;;;;5073578;28;20398;-81
2024/02/28 00:20:09;;;;;;;89.45;84.53;;;8.10;99.90;;;;;;5074175;28;20040;-82
2024/02/28 00:22:36;;;;;;;90.25;84.90;;;8.00;99.90;;;;;;5067181;28;20059;-82
2024/02/28 00:25:03;;;;;;;97.70;92.28;;;8.00;99.90;;;;;;5074262;28;20040;-82
2024/02/28 00:27:29;;;;;;;79.97;75.68;;;7.90;99.90;;;;;;5074163;28;20501;-82
2024/02/28 00:29:55;;;;;;;82.75;78.03;;;7.90;99.90;;;;;;5073801;28;20039;-82
2024/02/28 00:32:21;;;;;;;75.28;70.70;;;7.80;99.90;;;;;;5073240;28;20140;-82
2024/02/28 00:34:47;;;;;;;70.25;66.25;;;7.80;99.90;;;;;;5073161;28;20040;-81
2024/02/28 00:37:13;;;;;;;74.38;69.60;;;7.70;99.90;;;;;;5073529;28;20032;-81
2024/02/28 00:39:40;;;;;;;111.95;105.35;;;7.70;99.90;;;;;;5073444;28;20040;-81
2024/02/28 00:42:06;;;;;;;82.80;78.10;;;7.70;99.90;;;;;;5073130;28;20032;-82
2024/02/28 00:44:32;;;;;;;73.90;69.65;;;7.70;99.90;;;;;;5074130;28;20044;-82
2024/02/28 00:46:58;;;;;;;80.30;75.63;;;7.70;99.90;;;;;;5072739;28;20040;-82
2024/02/28 00:49:24;;;;;;;84.97;79.93;;;7.70;99.90;;;;;;5074138;28;20033;-82
2024/02/28 00:51:50;;;;;;;69.20;65.37;;;7.60;99.90;;;;;;5073414;28;20036;-82
2024/02/28 00:54:16;;;;;;;65.40;61.33;;;7.60;99.90;;;;;;5073984;28;20024;-82
2024/02/28 00:56:42;;;;;;;92.03;86.73;;;7.50;99.90;;;;;;5073326;28;20398;-82
2024/02/28 00:59:10;;;;;;;84.47;79.73;;;7.50;99.90;;;;;;5073890;28;20021;-82
2024/02/28 01:01:37;;;;;;;83.70;78.80;;;7.50;99.90;;;;;;5062767;28;20052;-82
2024/02/28 01:04:03;;;;;;;87.47;82.87;;;7.50;99.90;;;;;;5053663;28;20033;-82
2024/02/28 01:06:29;;;;;;;91.97;86.73;;;7.50;99.90;;;;;;5064491;28;20401;-82
2024/02/28 01:08:55;;;;;;;90.73;85.57;;;7.50;99.90;;;;;;5073645;28;20039;-82
2024/02/28 01:11:21;;;;;;;91.90;86.23;;;7.40;99.90;;;;;;5073138;28;20047;-82
2024/02/28 01:13:47;;;;;;;74.67;70.53;;;7.40;99.90;;;;;;5073452;28;20060;-81
2024/02/28 01:16:13;;;;;;;75.90;71.07;;;7.40;99.90;;;;;;5072308;28;20411;-82
2024/02/28 01:18:39;;;;;;;81.63;76.50;;;7.40;99.90;;;;;;5073484;28;20033;-82
2024/02/28 01:21:05;;;;;;;86.53;81.53;;;7.30;99.90;;;;;;5073032;28;20467;-82
2024/02/28 01:23:31;;;;;;;78.77;74.43;;;7.30;99.90;;;;;;5073126;28;20029;-82
2024/02/28 01:25:57;;;;;;;68.50;64.23;;;7.30;99.90;;;;;;5072953;28;20029;-73
2024/02/28 01:28:24;;;;;;;69.77;65.37;;;7.20;99.90;;;;;;5038039;28;20041;-73
2024/02/28 01:30:50;;;;;;;66.07;62.10;;;7.30;99.90;;;;;;5072088;28;20033;-72
2024/02/28 01:33:16;;;;;;;83.17;78.60;;;7.20;99.90;;;;;;5073165;28;20032;-73
2024/02/28 01:35:42;;;;;;;121.90;114.80;;;7.20;99.90;;;;;;5071583;28;20051;-73
2024/02/28 01:38:08;;;;;;;136.77;128.70;;;7.20;99.90;;;;;;5073048;28;20032;-73
2024/02/28 01:40:34;;;;;;;137.63;129.47;;;7.20;99.90;;;;;;5072298;28;20479;-73
2024/02/28 01:43:11;;;;;;;115.20;108.43;;;7.20;99.90;;;;;;5072584;28;20032;-73
2024/02/28 01:45:37;;;;;;;102.27;96.23;;;7.20;99.90;;;;;;5071526;28;20507;-73
2024/02/28 01:48:07;;;;;;;120.77;113.57;;;7.20;99.90;;;;;;5072904;28;20031;-73
2024/02/28 01:50:33;;;;;;;140.80;132.40;;;7.20;99.90;;;;;;5072119;28;20462;-73
2024/02/28 01:53:00;;;;;;;139.53;131.03;;;7.20;99.90;;;;;;5072274;28;20044;-73
2024/02/28 01:55:26;;;;;;;161.20;151.03;;;7.20;99.90;;;;;;5037338;28;20040;-73
2024/02/28 01:57:52;;;;;;;130.27;122.33;;;7.20;99.90;;;;;;5071238;28;20043;-73
2024/02/28 02:00:19;;;;;;;139.47;131.53;;;7.20;99.90;;;;;;5069153;28;20390;-73
2024/02/28 02:02:45;;;;;;;150.17;141.47;;;7.20;99.90;;;;;;5070931;28;20025;-73
2024/02/28 02:05:11;;;;;;;143.13;134.93;;;7.10;99.90;;;;;;5070657;28;20040;-73
2024/02/28 02:07:38;;;;;;;144.40;135.93;;;7.10;99.90;;;;;;5072456;28;20025;-73
2024/02/28 02:10:08;;;;;;;117.70;110.63;;;7.10;99.90;;;;;;5072091;28;20044;-73
2024/02/28 02:12:34;;;;;;;124.03;117.00;;;7.10;99.90;;;;;;5071658;28;20620;-73
2024/02/28 02:15:00;;;;;;;103.53;97.60;;;7.10;99.90;;;;;;5072131;28;20032;-73
2024/02/28 02:17:26;;;;;;;175.97;165.87;;;7.00;99.90;;;;;;5071252;28;20044;-73
2024/02/28 02:19:52;;;;;;;140.90;132.47;;;6.90;99.90;;;;;;5071895;28;20475;-73
2024/02/28 02:22:19;;;;;;;125.87;118.73;;;6.90;99.90;;;;;;5060557;28;20041;-73
2024/02/28 02:24:45;;;;;;;99.43;93.93;;;6.90;99.90;;;;;;5068877;28;20057;-73
2024/02/28 02:27:12;;;;;;;92.73;87.67;;;6.80;99.90;;;;;;5071356;28;20037;-82
2024/02/28 02:29:38;;;;;;;102.47;96.67;;;6.90;99.90;;;;;;5071986;28;20060;-82
2024/02/28 02:32:04;;;;;;;95.97;90.60;;;6.90;99.90;;;;;;5070631;28;20047;-82
2024/02/28 02:34:30;;;;;;;85.87;80.77;;;6.90;99.90;;;;;;5069814;28;20386;-82
2024/02/28 02:36:56;;;;;;;91.67;86.27;;;7.00;99.90;;;;;;5071998;28;20040;-82
2024/02/28 02:39:22;;;;;;;86.53;81.80;;;6.90;99.90;;;;;;5072000;28;20033;-81
2024/02/28 02:41:48;;;;;;;90.00;84.50;;;6.90;99.90;;;;;;5071257;28;20036;-82
2024/02/28 02:44:14;;;;;;;88.60;83.67;;;6.80;99.90;;;;;;5072091;28;20039;-82
2024/02/28 02:46:41;;;;;;;101.10;95.27;;;6.80;99.90;;;;;;5069492;28;20063;-82
2024/02/28 02:49:07;;;;;;;131.60;124.20;;;6.80;99.90;;;;;;5072180;28;20028;-82
2024/02/28 02:51:33;;;;;;;128.77;121.53;;;6.80;99.90;;;;;;5071414;28;20398;-82
2024/02/28 02:53:59;;;;;;;143.77;135.30;;;6.80;99.90;;;;;;5071783;28;20035;-82
2024/02/28 02:56:25;;;;;;;136.30;128.43;;;6.80;99.90;;;;;;5071184;28;20036;-82
2024/02/28 02:58:51;;;;;;;92.03;86.83;;;6.90;99.90;;;;;;5071593;28;20040;-82
2024/02/28 03:01:19;;;;;;;92.80;87.67;;;6.90;99.90;;;;;;5071314;28;20107;-82
2024/02/28 03:03:45;;;;;;;157.03;147.37;;;6.90;99.90;;;;;;5071584;28;20518;-82
2024/02/28 03:06:11;;;;;;;133.20;125.53;;;6.90;99.90;;;;;;5068969;28;20047;-83
2024/02/28 03:08:38;;;;;;;117.40;110.23;;;6.90;99.90;;;;;;5074791;28;20489;-82
2024/02/28 03:11:06;;;;;;;112.20;105.83;;;6.90;99.90;;;;;;5073810;28;20052;-82
2024/02/28 03:13:32;;;;;;;99.77;93.90;;;6.80;99.90;;;;;;5071474;28;20045;-82
2024/02/28 03:15:59;;;;;;;92.83;87.40;;;6.80;99.90;;;;;;5073578;28;20032;-82
2024/02/28 03:18:25;;;;;;;93.10;87.80;;;6.80;99.90;;;;;;5074538;28;20020;-82
2024/02/28 03:20:52;;;;;;;104.90;98.77;;;6.90;99.90;;;;;;5074185;28;20039;-82
2024/02/28 03:23:18;;;;;;;83.73;78.83;;;6.90;99.90;;;;;;5074203;28;20016;-82
2024/02/28 03:25:44;;;;;;;80.60;75.67;;;6.90;99.90;;;;;;5073344;28;20067;-82
2024/02/28 03:28:11;;;;;;;93.93;88.43;;;6.80;99.90;;;;;;5073995;28;20406;-82
2024/02/28 03:30:37;;;;;;;105.47;99.07;;;6.80;99.90;;;;;;5073450;28;20052;-72
2024/02/28 03:33:03;;;;;;;123.47;116.40;;;6.80;99.90;;;;;;5071454;28;20506;-72
2024/02/28 03:35:29;;;;;;;157.07;147.50;;;6.70;99.90;;;;;;5071814;28;20052;-72
2024/02/28 03:37:55;;;;;;;137.50;129.63;;;6.70;99.90;;;;;;5074667;28;20037;-72
2024/02/28 03:40:21;;;;;;;116.90;110.17;;;6.70;99.90;;;;;;5074325;28;20032;-72
2024/02/28 03:42:47;;;;;;;99.77;94.07;;;6.70;99.90;;;;;;5075205;28;20463;-72
2024/02/28 03:45:13;;;;;;;130.77;123.00;;;6.70;99.90;;;;;;5073821;28;20503;-72
2024/02/28 03:47:40;;;;;;;112.33;106.20;;;6.70;99.90;;;;;;5075129;28;20024;-72
2024/02/28 03:50:06;;;;;;;92.70;87.27;;;6.70;99.90;;;;;;5074412;28;20032;-72
2024/02/28 03:52:32;;;;;;;98.70;93.07;;;6.60;99.90;;;;;;5073077;28;20036;-72
2024/02/28 03:54:58;;;;;;;101.77;96.00;;;6.70;99.90;;;;;;5073299;28;20426;-72
2024/02/28 03:57:24;;;;;;;77.13;72.70;;;6.70;99.90;;;;;;5074845;28;20498;-72
2024/02/28 03:59:51;;;;;;;76.87;72.43;;;6.70;99.90;;;;;;5074927;28;20024;-72
2024/02/28 04:02:17;;;;;;;78.57;74.07;;;6.70;99.90;;;;;;5092736;28;20036;-72
2024/02/28 04:04:43;;;;;;;73.33;69.03;;;6.80;99.90;;;;;;5093531;28;20031;-72
2024/02/28 04:07:09;;;;;;;68.83;64.70;;;6.70;99.90;;;;;;5107311;28;20040;-72
2024/02/28 04:09:35;;;;;;;75.30;70.97;;;6.70;99.90;;;;;;5094548;28;20063;-72
2024/02/28 04:12:01;;;;;;;77.03;72.50;;;6.70;99.90;;;;;;5101146;28;20039;-71
2024/02/28 04:14:27;;;;;;;78.77;74.37;;;6.70;99.90;;;;;;5094815;28;20035;-72
2024/02/28 04:16:53;;;;;;;180.47;169.87;;;6.70;99.90;;;;;;5093021;28;20051;-72
2024/02/28 04:19:19;;;;;;;171.10;161.13;;;6.70;99.90;;;;;;5094866;28;20032;-72
2024/02/28 04:21:45;;;;;;;181.10;170.10;;;6.70;99.90;;;;;;5102795;28;20031;-72
2024/02/28 04:24:11;;;;;;;132.13;124.63;;;6.60;99.90;;;;;;5099250;28;20043;-72
2024/02/28 04:26:37;;;;;;;143.07;135.10;;;6.60;99.90;;;;;;5102020;28;20052;-72
2024/02/28 04:29:05;;;;;;;172.20;162.10;;;6.60;99.90;;;;;;5115149;28;20027;-72
2024/02/28 04:31:32;;;;;;;139.87;131.97;;;6.60;99.90;;;;;;5107160;28;20036;-72
2024/02/28 04:33:58;;;;;;;116.00;109.40;;;6.60;99.90;;;;;;5106711;28;20066;-82
2024/02/28 04:36:24;;;;;;;132.23;124.47;;;6.60;99.90;;;;;;5106471;28;20035;-82
2024/02/28 04:38:50;;;;;;;123.87;116.37;;;6.50;99.90;;;;;;5100722;28;20386;-82
2024/02/28 04:41:16;;;;;;;142.03;133.87;;;6.60;99.90;;;;;;5114455;28;20027;-82
2024/02/28 04:43:42;;;;;;;123.43;116.57;;;6.60;99.90;;;;;;5109311;28;20509;-82
2024/02/28 04:46:08;;;;;;;139.20;131.43;;;6.60;99.90;;;;;;5093413;28;20051;-82
2024/02/28 04:48:34;;;;;;;166.30;156.67;;;6.50;99.90;;;;;;5094453;28;20024;-81
2024/02/28 04:51:01;;;;;;;149.97;140.67;;;6.60;99.90;;;;;;5093546;28;20043;-82
2024/02/28 04:53:27;;;;;;;281.53;264.73;;;6.60;99.90;;;;;;5093453;28;20043;-81
2024/02/28 04:55:53;;;;;;;119.40;112.67;;;6.60;99.90;;;;;;5093760;28;20031;-81
2024/02/28 04:58:19;;;;;;;86.43;81.73;;;6.50;99.90;;;;;;5094244;28;20031;-81
2024/02/28 05:00:45;;;;;;;88.83;83.90;;;6.50;99.90;;;;;;5093225;28;20032;-81
2024/02/28 05:03:12;;;;;;;84.40;79.40;;;6.50;99.90;;;;;;5095377;28;20028;-82
2024/02/28 05:05:38;;;;;;;83.20;78.23;;;6.50;99.90;;;;;;5103540;28;20039;-81
2024/02/28 05:08:04;;;;;;;89.83;84.43;;;6.50;99.90;;;;;;5109785;28;20040;-81
2024/02/28 05:10:30;;;;;;;89.63;84.73;;;6.60;99.90;;;;;;5097866;28;20023;-81
2024/02/28 05:12:56;;;;;;;98.53;92.97;;;6.60;99.90;;;;;;5104794;28;20055;-81
2024/02/28 05:15:22;;;;;;;93.80;88.80;;;6.60;99.90;;;;;;5102139;28;20953;-81
2024/02/28 05:17:51;;;;;;;91.13;85.93;;;6.60;99.90;;;;;;5102557;28;20027;-81
2024/02/28 05:20:17;;;;;;;83.97;79.03;;;6.60;99.90;;;;;;5110300;28;20402;-81
2024/02/28 05:22:43;;;;;;;86.30;81.53;;;6.60;99.90;;;;;;5091069;28;20421;-81
2024/02/28 05:25:09;;;;;;;98.93;93.20;;;6.60;99.90;;;;;;5092388;28;20036;-82
2024/02/28 05:27:35;;;;;;;102.47;96.87;;;6.60;99.90;;;;;;5098902;28;20039;-81
2024/02/28 05:30:02;;;;;;;100.17;94.53;;;6.60;99.90;;;;;;5093634;28;20027;-82
2024/02/28 05:32:32;;;;;;;101.00;95.13;;;6.60;99.90;;;;;;5111422;28;20062;-82
2024/02/28 05:34:59;;;;;;;386.60;122.80;;;6.60;99.90;;;;;;5113825;28;20498;-81
2024/02/28 05:37:25;;;;;;;99.83;94.33;;;6.60;99.90;;;;;;5100949;28;20040;-82
2024/02/28 05:39:51;;;;;;;97.47;91.67;;;6.60;99.90;;;;;;5093311;28;20028;-81
2024/02/28 05:42:21;;;;;;;96.47;91.07;;;6.60;99.90;;;;;;5092148;28;20394;-82
2024/02/28 05:44:48;;;;;;;98.73;93.33;;;6.70;99.90;;;;;;5093138;28;20047;-82
2024/02/28 05:47:14;;;;;;;110.05;103.97;;;6.70;99.90;;;;;;5112782;28;20048;-71
2024/02/28 05:49:40;;;;;;;104.73;98.97;;;6.80;99.90;;;;;;5113452;28;20039;-71
2024/02/28 05:52:06;;;;;;;100.50;94.80;;;6.80;99.90;;;;;;5098174;28;20036;-71
2024/02/28 05:54:34;;;;;;;100.83;95.17;;;6.80;99.90;;;;;;5092580;28;20024;-71
2024/02/28 05:57:00;;;;;;;116.03;109.40;;;6.80;99.90;;;;;;5091368;28;20059;-72
2024/02/28 05:59:26;;;;;;;139.10;131.43;;;6.90;99.90;;;;;;5091639;28;20028;-72
2024/02/28 06:01:52;;;;;;;114.57;107.93;;;6.90;99.90;;;;;;5093702;28;20054;-72
2024/02/28 06:04:18;;;;;;;118.07;110.90;;;6.80;99.90;;;;;;5096194;28;20024;-72
2024/02/28 06:06:45;;;;;;;109.03;102.57;;;6.60;99.90;;;;;;5092048;28;20081;-72
2024/02/28 06:09:11;;;;;;;105.10;99.13;;;6.60;99.90;;;;;;5092755;28;20031;-72
2024/02/28 06:11:37;;;;;;;103.93;97.97;;;6.70;99.90;;;;;;5091896;28;20070;-72
2024/02/28 06:14:04;;;;;;;87.97;82.90;;;6.70;99.90;;;;;;5092582;28;20063;-71
2024/02/28 06:16:30;;;;;;;106.47;100.28;;;6.80;99.90;;;;;;5090329;28;20053;-71
2024/02/28 06:18:56;;;;;;;93.33;87.73;;;6.80;99.90;;;;;;5092614;28;20023;-71
2024/02/28 06:21:23;;;;;;;99.77;94.33;;;6.90;99.90;;;;;;5091947;28;20405;-71
2024/02/28 06:23:49;;;;;;;110.63;104.13;;;6.80;99.90;;;;;;5091617;28;20024;-71
2024/02/28 06:26:16;;;;;;;101.80;95.80;;;6.60;99.90;;;;;;5092356;28;20516;-72
2024/02/28 06:28:45;;;;;;;91.53;86.10;;;6.60;99.90;;;;;;5092669;28;20020;-71
2024/02/28 06:31:18;;;;;;;92.05;86.45;;;6.70;99.90;;;;;;5091930;28;20051;-72
2024/02/28 06:33:44;;;;;;;90.07;84.50;;;6.70;99.90;;;;;;5072016;28;20024;-71
2024/02/28 06:36:10;;;;;;;109.13;102.77;;;6.80;99.90;;;;;;5085849;28;20036;-71
2024/02/28 06:38:36;;;;;;;87.97;82.60;;;6.90;99.90;;;;;;5092514;28;20028;-71
2024/02/28 06:41:05;;;;;;;110.95;104.57;;;6.90;99.90;;;;;;5105636;28;20168;-72
2024/02/28 06:43:37;;;;;;;107.93;101.33;;;7.10;99.90;;;;;;5112130;28;20039;-72
2024/02/28 06:46:04;;;;;;;103.95;98.20;;;7.10;99.90;;;;;;5111447;28;20043;-71
2024/02/28 06:48:30;;;;;;;108.57;102.45;;;7.20;99.90;;;;;;5102297;28;20036;-82
2024/02/28 06:50:57;;;;;;;128.95;121.40;;;7.30;99.90;;;;;;5091939;28;20032;-82
2024/02/28 06:53:23;;;;;;;146.88;138.77;;;7.30;99.90;;;;;;5091912;28;20379;-81
2024/02/28 06:55:49;;;;;;;91.80;86.32;;;7.30;99.90;;;;;;5110129;28;20031;-82
2024/02/28 06:58:15;;;;;;;80.95;76.25;;;7.20;99.90;;;;;;5092566;28;20059;-82
2024/02/28 07:00:41;;;;;;;79.63;74.90;;;7.30;99.90;;;;;;5091983;28;20033;-82
2024/02/28 07:03:07;;;;;;;84.55;79.47;;;7.30;99.90;;;;;;5091684;28;20466;-82
2024/02/28 07:05:34;;;;;;;102.70;97.00;;;7.30;99.90;;;;;;5091605;28;20040;-82
2024/02/28 07:08:00;;;;;;;115.73;107.93;;;7.30;99.90;;;;;;5092000;28;20470;-82
2024/02/28 07:10:26;;;;;;;106.57;98.33;;;7.30;99.90;;;;;;5091733;28;20027;-81
2024/02/28 07:12:52;;;;;;;116.63;110.22;;;7.40;99.90;;;;;;5091908;28;20048;-82
2024/02/28 07:15:19;;;;;;;113.00;106.77;;;7.40;99.90;;;;;;5091773;28;20366;-82
2024/02/28 07:17:45;;;;;;;102.35;96.38;;;7.40;99.90;;;;;;5090951;28;20398;-82
2024/02/28 07:20:12;;;;;;;104.80;99.03;;;7.50;99.90;;;;;;5091742;28;20043;-83
2024/02/28 07:22:38;;;;;;;89.70;84.70;;;7.50;99.90;;;;;;5082882;28;20402;-82
2024/02/28 07:25:05;;;;;;;96.07;90.53;;;7.50;99.90;;;;;;5087782;28;20040;-82
2024/02/28 07:27:31;;;;;;;144.93;137.10;;;7.50;99.90;;;;;;5079760;28;20056;-82
2024/02/28 07:29:57;;;;;;;167.07;157.98;;;7.50;99.90;;;;;;5073911;28;20035;-82
2024/02/28 07:32:23;;;;;;;142.52;134.70;;;7.60;99.90;;;;;;5105570;28;20043;-82
2024/02/28 07:34:50;;;;;;;169.98;160.60;;;7.50;99.90;;;;;;5112112;28;20026;-81
2024/02/28 07:37:16;;;;;;;138.10;129.88;;;7.60;99.90;;;;;;5101491;28;20067;-82
2024/02/28 07:39:42;;;;;;;112.85;106.72;;;7.60;99.90;;;;;;5078488;28;20024;-82
2024/02/28 07:42:08;;;;;;;124.15;117.35;;;7.60;99.90;;;;;;5087844;28;20398;-81
2024/02/28 07:44:34;;;;;;;131.60;124.25;;;7.60;99.90;;;;;;5091743;28;20036;-81
2024/02/28 07:47:00;;;;;;;111.63;105.25;;;7.60;99.90;;;;;;5091584;28;20520;-81
2024/02/28 07:49:27;;;;;;;120.75;114.20;;;7.70;99.90;;;;;;5095718;28;20024;-82
2024/02/28 07:51:53;;;;;;;99.80;94.15;;;7.70;99.90;;;;;;5094550;28;20048;-83
2024/02/28 07:54:19;;;;;;;95.53;90.28;;;7.70;99.90;;;;;;5088139;28;20040;-83
2024/02/28 07:56:45;;;;;;;80.65;75.95;;;7.80;99.90;;;;;;5094825;28;20043;-82
2024/02/28 07:59:11;;;;;;;113.47;107.28;;;7.80;99.90;;;;;;5076928;28;20036;-83
2024/02/28 08:01:39;;;;;;;125.97;119.05;;;7.90;99.90;;;;;;5084146;28;20029;-82
2024/02/28 08:04:05;;;;;;;106.68;100.35;;;7.90;99.90;;;;;;5082820;28;20025;-83
2024/02/28 08:06:33;;;;;;;121.65;113.43;;;8.10;99.90;;;;;;5085963;28;20043;-82
2024/02/28 08:08:59;;;;;;;144.50;136.85;;;8.10;99.90;;;;;;5091669;28;20047;-82
2024/02/28 08:11:25;;;;;;;125.57;118.45;;;8.00;99.90;;;;;;5094552;28;20086;-82
2024/02/28 08:13:52;;;;;;;116.55;110.40;;;8.00;99.90;;;;;;5092318;28;20036;-82
2024/02/28 08:16:18;;;;;;;175.38;165.70;;;8.10;99.90;;;;;;5084759;28;20051;-82
2024/02/28 08:18:44;;;;;;;95.82;90.60;;;8.20;99.90;;;;;;5094840;28;20454;-81
2024/02/28 08:21:10;;;;;;;144.60;135.15;;;8.30;99.90;;;;;;5088338;28;20052;-82
2024/02/28 08:23:36;;;;;;;191.73;181.07;;;8.40;99.90;;;;;;5102521;28;20035;-82
2024/02/28 08:26:03;;;;;;;210.43;198.95;;;8.40;99.90;;;;;;5085432;28;20065;-83
2024/02/28 08:28:29;;;;;;;91.75;86.82;;;8.40;99.90;;;;;;5094371;28;20052;-71
2024/02/28 08:30:55;;;;;;;137.95;130.43;;;8.50;99.90;;;;;;5099409;28;20361;-72
2024/02/28 08:33:21;;;;;;;145.45;137.70;;;8.50;99.90;;;;;;5074797;28;20039;-71
2024/02/28 08:35:49;;;;;;;143.15;135.45;;;8.60;99.90;;;;;;5094064;28;20473;-69
2024/02/28 08:38:16;;;;;;;124.22;117.50;;;8.70;99.90;;;;;;5094687;28;20031;-68
2024/02/28 08:40:42;;;;;;;192.80;182.07;;;8.80;99.90;;;;;;5084366;28;20032;-68
2024/02/28 08:43:08;;;;;;;185.93;175.23;;;9.00;99.90;;;;;;5077086;28;20048;-69
2024/02/28 08:45:35;;;;;;;190.60;180.23;;;9.10;99.90;;;;;;5076371;28;20036;-72
2024/02/28 08:48:01;;;;;;;210.55;199.15;;;9.20;99.90;;;;;;5079494;28;20479;-72
2024/02/28 08:50:28;;;;;;;138.05;130.70;;;9.30;99.90;;;;;;5075817;28;20056;-72
2024/02/28 08:52:54;;;;;;;126.15;119.40;;;9.30;99.90;;;;;;5088152;28;20059;-73
2024/02/28 08:55:21;;;;;;;251.15;236.90;;;9.50;99.90;;;;;;5078813;28;20039;-75
2024/02/28 08:57:48;;;;;;;189.45;178.52;;;9.60;99.90;;;;;;5093750;28;20032;-73
2024/02/28 09:00:15;;;;;;;115.22;109.05;;;9.70;99.90;;;;;;5086028;28;20043;-73
2024/02/28 09:02:41;;;;;;;140.20;132.68;;;9.80;99.90;;;;;;5093071;28;20039;-73
2024/02/28 09:05:08;;;;;;;185.05;175.15;;;9.80;99.90;;;;;;5093106;28;20086;-72
2024/02/28 09:07:35;;;;;;;212.25;200.38;;;9.90;99.90;;;;;;5094281;28;20079;-73
2024/02/28 09:10:05;;;;;;;158.93;149.77;;;10.10;99.90;;;;;;5098035;28;20081;-73
2024/02/28 09:12:31;;;;;;;157.55;148.80;;;10.30;99.90;;;;;;5092970;28;20043;-73
2024/02/28 09:14:58;;;;;;;148.48;140.38;;;10.50;99.90;;;;;;5104247;28;20043;-72
2024/02/28 09:17:24;;;;;;;152.77;144.50;;;10.60;99.90;;;;;;5091758;28;20537;-72
2024/02/28 09:19:51;;;;;;;164.98;156.07;;;10.80;99.90;;;;;;5093758;28;20028;-72
2024/02/28 09:22:17;;;;;;;138.98;131.27;;;11.10;99.90;;;;;;5080924;28;20045;-73
2024/02/28 09:24:43;;;;;;;1999.90;999.90;;;11.20;99.90;;;;;;5085700;28;20043;-72
2024/02/28 09:27:09;;;;;;;158.38;149.43;;;11.40;99.90;;;;;;5091764;28;20048;-72
2024/02/28 09:29:36;;;;;;;1999.90;999.90;;;11.50;99.90;;;;;;5093055;28;20044;-77
2024/02/28 09:32:02;;;;;;;1999.90;999.90;;;11.70;99.90;;;;;;5108417;28;20062;-78
2024/02/28 09:34:28;;;;;;;1999.90;999.90;;;11.80;99.90;;;;;;5089256;28;20032;-78
2024/02/28 09:36:54;;;;;;;1999.90;999.90;;;11.90;99.90;;;;;;5086891;28;20043;-68
2024/02/28 09:39:21;;;;;;;1999.90;999.90;;;12.10;99.90;;;;;;5078707;28;20040;-68
2024/02/28 09:41:50;;;;;;;1999.90;999.90;;;12.20;99.90;;;;;;5085886;28;20631;-72
2024/02/28 09:44:16;;;;;;;1999.90;999.90;;;12.10;99.90;;;;;;5092497;28;20485;-78
2024/02/28 09:46:43;;;;;;;1999.90;999.90;;;12.10;99.90;;;;;;5090116;28;20411;-78
2024/02/28 09:49:09;;;;;;;1999.90;999.90;;;12.20;99.90;;;;;;5065249;28;20033;-78
2024/02/28 09:51:35;;;;;;;1999.90;999.90;;;12.30;99.90;;;;;;5089661;28;20028;-78
2024/02/28 09:54:05;;;;;;;1999.90;999.90;;;12.50;99.90;;;;;;5111094;28;20477;-78
2024/02/28 09:56:32;;;;;;;1999.90;999.90;;;12.50;99.90;;;;;;5101336;28;20032;-78
2024/02/28 09:58:58;;;;;;;1999.90;999.90;;;12.80;99.90;;;;;;5100148;28;20044;-78
2024/02/28 10:01:27;;;;;;;1999.90;999.90;;;12.90;99.90;;;;;;5090967;28;20036;-77
2024/02/28 10:03:53;;;;;;;1999.90;999.90;;;13.10;99.90;;;;;;5091514;28;20027;-70
2024/02/28 10:06:20;;;;;;;1999.90;999.90;;;13.10;99.90;;;;;;5091338;28;20039;-70
2024/02/28 10:08:47;;;;;;;1999.90;999.90;;;13.20;99.90;;;;;;5111323;28;20032;-70
2024/02/28 10:11:22;;;;;;;1999.90;999.90;;;13.20;99.90;;;;;;5107452;28;20069;-71
2024/02/28 10:13:49;;;;;;;1999.90;999.90;;;13.30;99.90;;;;;;5111130;28;20058;-71
2024/02/28 10:16:15;;;;;;;1999.90;999.90;;;13.20;99.90;;;;;;5100929;28;20040;-72
2024/02/28 10:18:45;;;;;;;1999.90;999.90;;;13.10;99.90;;;;;;5085113;28;20032;-70
2024/02/28 10:21:15;;;;;;;1999.90;999.90;;;13.00;99.90;;;;;;5079186;28;20040;-70
2024/02/28 10:23:41;;;;;;;1999.90;999.90;;;13.00;99.90;;;;;;5085164;28;20044;-70
2024/02/28 10:26:13;;;;;;;307.15;289.52;;;12.90;99.90;;;;;;5088898;28;20036;-69
2024/02/28 10:28:40;;;;;;;1999.90;999.90;;;12.90;99.90;;;;;;5072240;28;20032;-70
2024/02/28 10:31:07;;;;;;;1999.90;999.90;;;12.80;99.90;;;;;;5081951;28;20039;-70
2024/02/28 10:33:35;;;;;;;1999.90;999.90;;;12.80;99.90;;;;;;5075733;28;20040;-70
2024/02/28 10:36:03;;;;;;;1999.90;999.90;;;12.70;99.90;;;;;;5089715;28;20040;-70
2024/02/28 10:38:30;;;;;;;338.08;318.13;;;12.70;99.90;;;;;;5083730;28;20020;-70
2024/02/28 10:40:57;;;;;;;263.70;248.82;;;12.70;99.90;;;;;;5090172;28;20485;-70
2024/02/28 10:43:23;;;;;;;280.88;265.02;;;12.70;99.90;;;;;;5090760;28;20043;-78
2024/02/28 10:45:50;;;;;;;255.77;241.75;;;12.70;99.90;;;;;;5090311;28;20024;-80
2024/02/28 10:48:16;;;;;;;414.55;388.65;;;12.60;99.90;;;;;;5081582;28;20040;-79
2024/02/28 10:50:44;;;;;;;283.90;268.38;;;12.60;99.90;;;;;;5075964;28;20386;-80
2024/02/28 10:53:16;;;;;;;313.52;295.45;;;12.60;99.90;;;;;;5091978;28;20043;-78
2024/02/28 10:55:43;;;;;;;325.95;306.92;;;12.50;99.90;;;;;;5089035;28;20036;-79
2024/02/28 10:58:10;;;;;;;293.00;276.20;;;12.60;99.90;;;;;;5090670;28;20051;-78
2024/02/28 11:00:38;;;;;;;354.65;334.17;;;12.60;99.90;;;;;;5090927;28;20493;-79
2024/02/28 11:03:04;;;;;;;365.15;344.42;;;12.60;99.90;;;;;;5090454;28;20410;-79
2024/02/28 11:05:38;;;;;;;345.45;325.42;;;12.70;99.90;;;;;;5107998;28;20070;-79
2024/02/28 11:08:26;;;;;;;366.85;344.38;;;12.80;99.90;;;;;;5091715;28;20398;-79
2024/02/28 11:10:56;;;;;;;319.65;301.15;;;12.80;99.90;;;;;;5077226;28;20023;-79
2024/02/28 11:13:26;;;;;;;225.35;213.25;;;12.90;99.90;;;;;;5109578;28;20047;-79
2024/02/28 11:15:52;;;;;;;321.50;302.90;;;13.00;99.90;;;;;;5103595;28;20035;-79
2024/02/28 11:18:19;;;;;;;278.75;263.58;;;12.90;99.90;;;;;;5092077;28;20039;-78
2024/02/28 11:20:48;;;;;;;312.60;294.98;;;12.90;99.90;;;;;;5090452;28;20039;-78
2024/02/28 11:23:15;;;;;;;297.13;280.58;;;12.80;99.90;;;;;;5098715;28;20387;-79
2024/02/28 11:25:42;;;;;;;334.60;315.67;;;12.70;99.90;;;;;;5112308;28;20054;-79
2024/02/28 11:28:08;;;;;;;337.45;317.77;;;12.70;99.90;;;;;;5094696;28;20040;-70
2024/02/28 11:30:35;;;;;;;334.13;314.50;;;12.70;99.90;;;;;;5092880;28;20050;-70
2024/02/28 11:33:01;;;;;;;307.73;290.20;;;12.70;99.90;;;;;;5088555;28;20386;-70
2024/02/28 11:35:31;;;;;;;326.73;308.20;;;12.70;99.90;;;;;;5086632;28;20028;-70
2024/02/28 11:37:57;;;;;;;335.08;316.23;;;12.70;99.90;;;;;;5092966;28;20036;-70
2024/02/28 11:40:26;;;;;;;303.20;286.27;;;12.70;99.90;;;;;;5081527;28;20394;-70
2024/02/28 11:42:53;;;;;;;278.02;262.90;;;12.80;99.90;;;;;;5094567;28;20035;-69
2024/02/28 11:45:19;;;;;;;292.77;276.65;;;12.80;99.90;;;;;;5093546;28;20035;-72
2024/02/28 11:47:47;;;;;;;329.35;310.27;;;12.80;99.90;;;;;;5084482;28;20520;-72
2024/02/28 11:50:14;;;;;;;370.60;349.00;;;12.80;99.90;;;;;;5087190;28;20041;-73
2024/02/28 11:52:41;;;;;;;322.45;304.75;;;12.80;99.90;;;;;;5077852;28;20048;-73
2024/02/28 11:55:07;;;;;;;377.92;356.20;;;12.80;99.90;;;;;;5093856;28;20028;-73
2024/02/28 11:57:33;;;;;;;360.52;340.08;;;12.80;99.90;;;;;;5107044;28;20020;-73
2024/02/28 12:00:07;;;;;;;263.45;249.93;;;12.80;99.90;;;;;;5081929;28;20510;-73
2024/02/28 12:02:33;;;;;;;337.60;318.15;;;12.90;99.90;;;;;;5102478;28;20429;-74
2024/02/28 12:05:04;;;;;;;318.95;301.45;;;13.00;99.90;;;;;;5098433;28;20023;-73
2024/02/28 12:07:30;;;;;;;401.15;377.77;;;13.00;99.90;;;;;;5096968;28;20416;-73
2024/02/28 12:10:00;;;;;;;294.20;278.15;;;13.00;99.90;;;;;;5094628;28;20032;-75
2024/02/28 12:12:29;;;;;;;287.05;271.67;;;13.00;99.90;;;;;;5097804;28;20046;-74
2024/02/28 12:15:01;;;;;;;290.63;274.92;;;12.90;99.90;;;;;;5094567;28;20071;-75
2024/02/28 12:17:27;;;;;;;297.23;281.15;;;13.00;99.90;;;;;;5106335;28;20047;-73